createdAt,value
2022-08-10T00:00:35.970Z,1.40
2022-08-10T00:03:02.951Z,1.30
2022-08-10T00:05:43.125Z,1.60
2022-08-10T00:08:10.933Z,1.50
2022-08-10T00:10:49.970Z,1.50
2022-08-10T00:13:17.011Z,1.60
2022-08-10T00:15:53.340Z,1.60
2022-08-10T00:18:34.582Z,1.80
2022-08-10T00:21:03.841Z,2.10
2022-08-10T00:23:31.002Z,1.40
2022-08-10T00:25:57.953Z,1.90
2022-08-10T00:28:25.000Z,1.80
2022-08-10T00:30:52.051Z,1.60
2022-08-10T00:33:19.104Z,1.50
2022-08-10T00:35:46.049Z,2.00
2022-08-10T00:38:13.093Z,1.80
2022-08-10T00:40:40.161Z,2.00
2022-08-10T00:43:07.198Z,1.60
2022-08-10T00:45:34.785Z,1.70
2022-08-10T00:48:01.695Z,1.80
2022-08-10T00:50:28.646Z,1.80
2022-08-10T00:52:55.696Z,1.80
2022-08-10T00:55:22.754Z,1.50
2022-08-10T00:57:55.218Z,1.60
2022-08-10T01:00:24.117Z,1.70
2022-08-10T01:02:51.404Z,1.90
2022-08-10T01:05:20.757Z,1.60
2022-08-10T01:08:08.192Z,1.90
2022-08-10T01:10:52.041Z,1.60
2022-08-10T01:13:25.524Z,1.70
2022-08-10T01:16:13.979Z,1.60
2022-08-10T01:18:44.211Z,1.50
2022-08-10T01:21:38.805Z,1.90
2022-08-10T01:24:27.769Z,1.80
2022-08-10T01:27:06.184Z,1.70
2022-08-10T01:29:36.308Z,2.30
2022-08-10T01:32:07.268Z,1.90
2022-08-10T01:34:40.009Z,2.00
2022-08-10T01:37:10.881Z,1.90
2022-08-10T01:39:43.921Z,2.00
2022-08-10T01:42:13.056Z,2.30
2022-08-10T01:44:45.598Z,2.00
2022-08-10T01:47:36.870Z,1.90
2022-08-10T01:50:10.764Z,2.40
2022-08-10T01:52:37.704Z,2.10
2022-08-10T01:55:05.567Z,2.10
2022-08-10T01:57:32.613Z,2.40
2022-08-10T02:00:02.509Z,2.40
2022-08-10T02:02:30.427Z,2.30
2022-08-10T02:04:57.342Z,2.00
2022-08-10T02:07:25.823Z,2.50
2022-08-10T02:09:53.696Z,2.10
2022-08-10T02:12:23.088Z,2.00
2022-08-10T02:14:59.641Z,2.20
2022-08-10T02:17:59.158Z,2.20
2022-08-10T02:20:19.674Z,2.00
2022-08-10T02:22:49.598Z,2.30
2022-08-10T02:25:42.210Z,1.90
2022-08-10T02:28:04.572Z,2.30
2022-08-10T02:30:31.623Z,2.60
2022-08-10T02:32:58.855Z,2.40
2022-08-10T02:35:27.359Z,2.60
2022-08-10T02:38:00.384Z,1.90
2022-08-10T02:42:18.645Z,2.00
2022-08-10T02:45:27.144Z,2.30
2022-08-10T02:46:13.911Z,2.70
2022-08-10T02:49:00.133Z,2.10
2022-08-10T02:52:07.888Z,2.00
2022-08-10T02:54:33.134Z,1.90
2022-08-10T02:57:03.028Z,2.00
2022-08-10T02:59:39.588Z,2.40
2022-08-10T03:02:08.284Z,2.20
2022-08-10T03:04:56.134Z,1.90
2022-08-10T03:07:44.236Z,2.70
2022-08-10T03:10:34.355Z,1.90
2022-08-10T03:13:02.217Z,2.00
2022-08-10T03:15:29.884Z,1.60
2022-08-10T03:17:58.785Z,2.10
2022-08-10T03:20:36.575Z,1.90
2022-08-10T03:23:13.174Z,1.70
2022-08-10T03:25:40.097Z,1.60
2022-08-10T03:28:07.034Z,1.80
2022-08-10T03:30:34.634Z,1.90
2022-08-10T03:33:03.386Z,1.70
2022-08-10T03:35:30.434Z,2.10
2022-08-10T03:37:59.794Z,1.70
2022-08-10T03:40:45.517Z,1.70
2022-08-10T03:43:18.218Z,1.90
2022-08-10T03:45:55.152Z,2.10
2022-08-10T03:48:24.399Z,1.80
2022-08-10T03:50:59.529Z,1.80
2022-08-10T03:54:02.391Z,1.80
2022-08-10T03:56:29.705Z,1.90
2022-08-10T03:58:58.874Z,1.80
2022-08-10T04:02:46.141Z,2.00
2022-08-10T04:04:15.482Z,1.70
2022-08-10T04:06:46.542Z,1.50
2022-08-10T04:09:18.202Z,1.90
2022-08-10T04:11:45.149Z,1.70
2022-08-10T04:14:38.234Z,1.80
2022-08-10T04:16:59.123Z,1.70
2022-08-10T04:19:26.413Z,1.60
2022-08-10T04:22:05.449Z,1.70
2022-08-10T04:24:33.363Z,1.50
2022-08-10T04:27:01.549Z,1.90
2022-08-10T04:29:28.801Z,1.90
2022-08-10T04:31:55.872Z,1.80
2022-08-10T04:34:22.895Z,1.80
2022-08-10T04:36:50.149Z,1.50
2022-08-10T04:39:17.531Z,2.20
2022-08-10T04:41:47.448Z,1.70
2022-08-10T04:44:15.182Z,1.70
2022-08-10T04:46:56.335Z,1.80
2022-08-10T04:49:52.147Z,1.80
2022-08-10T04:52:14.437Z,1.70
2022-08-10T04:54:41.822Z,1.60
2022-08-10T04:57:09.316Z,1.80
2022-08-10T04:59:36.490Z,1.50
2022-08-10T05:02:27.131Z,1.70
2022-08-10T05:04:50.853Z,2.10
2022-08-10T05:07:18.549Z,1.70
2022-08-10T05:10:02.911Z,1.90
2022-08-10T05:12:37.341Z,1.80
2022-08-10T05:15:09.799Z,1.70
2022-08-10T05:17:37.225Z,1.50
2022-08-10T05:20:07.474Z,2.00
2022-08-10T05:22:42.585Z,1.50
2022-08-10T05:25:12.853Z,2.20
2022-08-10T05:27:41.653Z,2.10
2022-08-10T05:30:10.565Z,2.00
2022-08-10T05:32:57.299Z,2.60
2022-08-10T05:35:27.925Z,2.00
2022-08-10T05:38:09.174Z,2.80
2022-08-10T05:40:46.049Z,2.90
2022-08-10T05:43:18.008Z,2.60
2022-08-10T05:46:17.054Z,2.20
2022-08-10T05:48:55.303Z,2.00
2022-08-10T05:51:20.872Z,1.90
2022-08-10T05:54:00.823Z,2.90
2022-08-10T05:56:54.698Z,2.40
2022-08-10T06:00:35.180Z,2.40
2022-08-10T06:02:41.704Z,2.20
2022-08-10T06:04:54.530Z,2.10
2022-08-10T06:07:22.185Z,2.30
2022-08-10T06:09:58.914Z,7.30
2022-08-10T06:12:31.352Z,2.70
2022-08-10T06:15:05.318Z,2.30
2022-08-10T06:17:33.371Z,2.30
2022-08-10T06:20:01.510Z,2.00
2022-08-10T06:22:32.713Z,2.20
2022-08-10T06:27:48.746Z,2.60
2022-08-10T06:30:19.836Z,2.40
2022-08-10T06:32:54.995Z,2.20
2022-08-10T06:35:25.890Z,2.30
2022-08-10T06:37:53.015Z,2.50
2022-08-10T06:40:20.560Z,1.90
2022-08-10T06:42:48.652Z,2.80
2022-08-10T06:45:30.550Z,2.30
2022-08-10T06:48:03.127Z,2.50
2022-08-10T06:50:45.237Z,2.50
2022-08-10T06:53:23.544Z,2.30
2022-08-10T06:55:57.451Z,2.50
2022-08-10T06:58:26.820Z,2.30
2022-08-10T07:00:54.490Z,2.30
2022-08-10T07:03:21.944Z,2.60
2022-08-10T07:05:51.402Z,3.00
2022-08-10T07:08:20.283Z,2.40
2022-08-10T07:10:47.844Z,2.40
2022-08-10T07:14:16.569Z,2.70
2022-08-10T07:16:10.931Z,6.90
2022-08-10T07:18:38.491Z,7.10
2022-08-10T07:21:05.743Z,4.40
2022-08-10T07:23:57.083Z,2.80
2022-08-10T07:26:20.120Z,2.40
2022-08-10T07:28:48.813Z,2.60
2022-08-10T07:31:54.328Z,2.40
2022-08-10T07:34:09.567Z,2.70
2022-08-10T07:36:36.822Z,2.50
2022-08-10T07:39:05.484Z,2.70
2022-08-10T07:41:33.206Z,2.10
2022-08-10T07:44:03.274Z,2.20
2022-08-10T07:46:31.176Z,2.30
2022-08-10T07:49:01.379Z,2.00
2022-08-10T07:51:28.625Z,2.90
2022-08-10T07:53:55.885Z,2.40
2022-08-10T07:56:47.268Z,2.00
2022-08-10T07:59:14.663Z,2.20
2022-08-10T08:04:18.902Z,2.00
2022-08-10T08:06:46.159Z,2.40
2022-08-10T08:09:13.214Z,2.40
2022-08-10T08:11:43.019Z,2.40
2022-08-10T08:14:11.098Z,2.40
2022-08-10T08:16:40.540Z,2.30
2022-08-10T08:19:27.284Z,2.10
2022-08-10T08:24:05.848Z,2.00
2022-08-10T08:24:42.889Z,2.30
2022-08-10T08:27:10.894Z,2.10
2022-08-10T08:29:41.576Z,1.90
2022-08-10T08:32:08.578Z,2.00
2022-08-10T08:34:41.419Z,2.40
2022-08-10T08:37:11.205Z,3.10
2022-08-10T08:39:38.544Z,9.10
2022-08-10T08:42:26.369Z,3.40
2022-08-10T08:45:15.969Z,3.10
2022-08-10T08:48:05.040Z,3.50
2022-08-10T08:51:01.738Z,2.60
2022-08-10T08:54:02.428Z,4.70
2022-08-10T08:56:36.928Z,4.30
2022-08-10T08:59:42.414Z,4.10
2022-08-10T09:02:55.106Z,4.40
2022-08-10T09:05:58.562Z,5.30
2022-08-10T09:09:00.382Z,2.30
2022-08-10T09:11:49.141Z,2.30
2022-08-10T09:14:25.863Z,1.80
2022-08-10T09:17:04.855Z,2.30
2022-08-10T09:19:37.645Z,2.00
2022-08-10T09:22:41.547Z,1.70
2022-08-10T09:25:22.214Z,2.20
2022-08-10T09:28:10.154Z,1.90
2022-08-10T09:31:21.548Z,2.00
2022-08-10T09:36:22.291Z,2.10
2022-08-10T09:37:02.029Z,2.00
2022-08-10T09:40:12.574Z,3.10
2022-08-10T09:42:42.315Z,2.10
2022-08-10T09:45:16.809Z,1.90
2022-08-10T09:48:02.426Z,2.00
2022-08-10T09:51:28.057Z,2.00
2022-08-10T09:53:46.904Z,1.90
2022-08-10T09:57:17.924Z,2.00
2022-08-10T10:00:01.446Z,2.40
2022-08-10T10:03:06.779Z,2.30
2022-08-10T10:05:52.769Z,2.30
2022-08-10T10:08:28.655Z,2.40
2022-08-10T10:11:16.662Z,2.40
2022-08-10T10:14:02.794Z,2.00
2022-08-10T10:16:50.879Z,1.90
2022-08-10T10:19:37.211Z,2.80
2022-08-10T10:22:46.218Z,2.30
2022-08-10T10:25:51.360Z,2.10
2022-08-10T10:29:44.820Z,3.10
2022-08-10T10:32:09.629Z,2.00
2022-08-10T10:35:02.793Z,2.40
2022-08-10T10:38:00.725Z,2.50
2022-08-10T10:40:17.988Z,2.20
2022-08-10T10:43:15.961Z,2.70
2022-08-10T10:45:50.403Z,2.20
2022-08-10T10:48:48.463Z,2.00
2022-08-10T10:51:28.108Z,1.90
2022-08-10T10:54:13.799Z,1.80
2022-08-10T10:56:57.441Z,2.20
2022-08-10T10:59:55.417Z,2.60
2022-08-10T11:02:41.819Z,2.10
2022-08-10T11:05:31.500Z,2.10
2022-08-10T11:08:17.247Z,1.80
2022-08-10T11:12:00.397Z,1.90
2022-08-10T11:14:26.038Z,2.00
2022-08-10T11:17:16.641Z,1.90
2022-08-10T11:20:02.089Z,2.10
2022-08-10T11:22:50.985Z,2.10
2022-08-10T11:25:27.499Z,2.20
2022-08-10T11:28:05.463Z,2.00
2022-08-10T11:30:53.615Z,1.80
2022-08-10T11:34:04.083Z,2.50
2022-08-10T11:36:36.451Z,3.00
2022-08-10T11:39:16.870Z,2.20
2022-08-10T11:42:12.498Z,1.50
2022-08-10T11:44:49.834Z,1.80
2022-08-10T11:47:33.360Z,1.90
2022-08-10T11:50:01.639Z,1.60
2022-08-10T11:52:59.920Z,1.80
2022-08-10T11:55:33.117Z,1.60
2022-08-10T11:58:22.387Z,1.50
2022-08-10T12:00:49.641Z,2.00
2022-08-10T12:03:17.102Z,2.10
2022-08-10T12:05:54.551Z,1.90
2022-08-10T12:10:03.671Z,1.70
2022-08-10T12:11:24.254Z,1.90
2022-08-10T12:14:20.292Z,1.90
2022-08-10T12:16:52.454Z,2.00
2022-08-10T12:19:59.794Z,1.70
2022-08-10T12:22:51.329Z,1.70
2022-08-10T12:25:56.884Z,2.10
2022-08-10T12:28:15.181Z,1.80
2022-08-10T12:30:47.039Z,2.00
2022-08-10T12:33:24.304Z,1.40
2022-08-10T12:36:17.461Z,2.10
2022-08-10T12:39:26.189Z,1.80
2022-08-10T12:42:00.752Z,2.00
2022-08-10T12:44:44.719Z,1.70
2022-08-10T12:47:43.158Z,1.60
2022-08-10T12:50:32.916Z,1.80
2022-08-10T12:53:06.596Z,1.90
2022-08-10T12:55:35.039Z,1.40
2022-08-10T12:58:01.985Z,2.00
2022-08-10T13:00:53.878Z,2.00
2022-08-10T13:04:23.518Z,2.10
2022-08-10T13:06:14.134Z,1.90
2022-08-10T13:08:59.819Z,1.90
2022-08-10T13:12:37.468Z,2.00
2022-08-10T13:14:27.704Z,2.10
2022-08-10T13:16:57.289Z,1.60
2022-08-10T13:19:25.282Z,2.00
2022-08-10T13:21:52.331Z,1.80
2022-08-10T13:24:33.241Z,1.80
2022-08-10T13:27:25.134Z,2.20
2022-08-10T13:30:07.240Z,2.10
2022-08-10T13:32:38.659Z,1.90
2022-08-10T13:35:10.778Z,1.60
2022-08-10T13:37:39.639Z,1.90
2022-08-10T13:40:13.229Z,1.90
2022-08-10T13:42:41.852Z,2.80
2022-08-10T13:45:12.103Z,1.80
2022-08-10T13:50:35.626Z,2.00
2022-08-10T13:53:14.249Z,2.50
2022-08-10T13:55:56.508Z,2.20
2022-08-10T13:58:34.826Z,2.30
2022-08-10T14:01:37.430Z,2.90
2022-08-10T14:04:06.374Z,2.70
2022-08-10T14:06:33.529Z,2.60
2022-08-10T14:09:02.701Z,2.20
2022-08-10T14:11:29.676Z,2.30
2022-08-10T14:13:58.864Z,2.50
2022-08-10T14:16:26.047Z,2.60
2022-08-10T14:18:56.154Z,2.10
2022-08-10T14:21:23.820Z,2.80
2022-08-10T14:23:53.627Z,2.90
2022-08-10T14:26:29.079Z,2.90
2022-08-10T14:29:18.950Z,2.70
2022-08-10T14:32:01.670Z,2.50
2022-08-10T14:34:59.416Z,2.20
2022-08-10T14:37:40.512Z,2.50
2022-08-10T14:40:16.139Z,2.60
2022-08-10T14:42:45.596Z,2.10
2022-08-10T14:45:19.878Z,2.20
2022-08-10T14:48:03.358Z,2.00
2022-08-10T14:50:33.553Z,2.10
2022-08-10T14:53:10.050Z,2.10
2022-08-10T14:55:58.390Z,2.30
2022-08-10T14:58:29.336Z,3.00
2022-08-10T15:00:56.816Z,2.70
2022-08-10T15:03:59.379Z,2.50
2022-08-10T15:06:17.232Z,2.70
2022-08-10T15:08:46.951Z,2.50
2022-08-10T15:12:13.008Z,2.40
2022-08-10T15:14:41.177Z,2.80
2022-08-10T15:16:55.908Z,2.30
2022-08-10T15:20:01.492Z,2.40
2022-08-10T15:22:36.255Z,2.10
2022-08-10T15:25:05.183Z,2.40
2022-08-10T15:27:54.921Z,2.10
2022-08-10T15:30:31.665Z,2.70
2022-08-10T15:34:02.032Z,2.50
2022-08-10T15:36:30.058Z,2.50
2022-08-10T15:39:00.204Z,1.90
2022-08-10T15:41:58.434Z,2.10
2022-08-10T15:44:35.655Z,2.20
2022-08-10T15:47:03.133Z,1.80
2022-08-10T15:49:45.322Z,2.30
2022-08-10T15:52:39.048Z,2.20
2022-08-10T15:55:42.432Z,2.60
2022-08-10T15:58:40.402Z,2.00
2022-08-10T16:02:14.717Z,2.70
2022-08-10T16:04:32.187Z,2.30
2022-08-10T16:07:06.064Z,2.10
2022-08-10T16:10:23.092Z,2.60
2022-08-10T16:12:59.601Z,2.00
2022-08-10T16:15:27.777Z,2.20
2022-08-10T16:17:56.477Z,2.10
2022-08-10T16:20:54.712Z,1.70
2022-08-10T16:23:29.065Z,1.70
2022-08-10T16:26:13.519Z,1.50
2022-08-10T16:28:45.141Z,1.70
2022-08-10T16:31:21.140Z,1.70
2022-08-10T16:33:56.177Z,2.00
2022-08-10T16:36:31.322Z,2.00
2022-08-10T16:38:59.092Z,1.90
2022-08-10T16:42:02.687Z,1.30
2022-08-10T16:44:19.406Z,1.50
2022-08-10T16:46:46.659Z,1.60
2022-08-10T16:49:14.117Z,1.70
2022-08-10T16:51:41.270Z,1.80
2022-08-10T16:54:08.430Z,1.60
2022-08-10T16:56:48.911Z,2.50
2022-08-10T16:59:24.749Z,1.90
2022-08-10T17:01:53.807Z,2.10
2022-08-10T17:04:22.829Z,1.90
2022-08-10T17:07:00.132Z,2.10
2022-08-10T17:09:34.667Z,1.90
2022-08-10T17:12:10.667Z,1.50
2022-08-10T17:14:38.917Z,2.50
2022-08-10T17:17:07.213Z,1.60
2022-08-10T17:19:43.102Z,1.60
2022-08-10T17:22:15.520Z,1.80
2022-08-10T17:24:50.664Z,1.90
2022-08-10T17:28:04.318Z,2.00
2022-08-10T17:30:15.985Z,2.20
2022-08-10T17:33:09.788Z,2.20
2022-08-10T17:35:38.086Z,1.90
2022-08-10T17:38:12.244Z,1.80
2022-08-10T17:41:05.403Z,1.90
2022-08-10T17:44:01.097Z,2.20
2022-08-10T17:46:19.602Z,2.00
2022-08-10T17:48:47.585Z,1.80
2022-08-10T17:51:15.766Z,2.20
2022-08-10T17:53:44.238Z,1.70
2022-08-10T17:56:11.811Z,1.90
2022-08-10T17:58:51.037Z,2.00
2022-08-10T18:01:41.680Z,1.50
2022-08-10T18:04:12.776Z,2.30
2022-08-10T18:06:41.360Z,1.80
2022-08-10T18:09:18.783Z,1.90
2022-08-10T18:11:48.116Z,2.10
2022-08-10T18:14:15.813Z,1.90
2022-08-10T18:16:43.946Z,2.50
2022-08-10T18:19:12.876Z,1.90
2022-08-10T18:21:41.494Z,1.80
2022-08-10T18:24:19.295Z,2.30
2022-08-10T18:26:51.641Z,2.80
2022-08-10T18:29:22.477Z,2.40
2022-08-10T18:31:49.868Z,2.10
2022-08-10T18:34:21.188Z,2.50
2022-08-10T18:36:49.504Z,2.30
2022-08-10T18:39:22.698Z,2.40
2022-08-10T18:42:00.171Z,2.10
2022-08-10T18:44:35.202Z,2.20
2022-08-10T18:47:16.827Z,2.50
2022-08-10T18:49:44.251Z,2.20
2022-08-10T18:52:12.566Z,2.20
2022-08-10T18:54:47.674Z,2.80
2022-08-10T18:57:22.627Z,2.70
2022-08-10T19:00:10.811Z,2.50
2022-08-10T19:03:18.896Z,2.70
2022-08-10T19:06:24.115Z,2.30
2022-08-10T19:09:09.642Z,2.50
2022-08-10T19:12:30.076Z,2.40
2022-08-10T19:15:36.094Z,2.40
2022-08-10T19:18:14.409Z,2.90
2022-08-10T19:20:52.218Z,3.30
2022-08-10T19:23:38.080Z,2.60
2022-08-10T19:26:43.749Z,2.60
2022-08-10T19:30:12.226Z,2.50
2022-08-10T19:32:38.241Z,3.60
2022-08-10T19:35:16.570Z,2.70
2022-08-10T19:38:00.386Z,3.00
2022-08-10T19:40:53.233Z,2.90
2022-08-10T19:44:00.648Z,2.70
2022-08-10T19:46:31.488Z,2.70
2022-08-10T19:49:39.854Z,2.70
2022-08-10T19:52:12.282Z,3.20
2022-08-10T19:55:02.469Z,3.20
2022-08-10T19:57:40.578Z,3.00
2022-08-10T20:00:19.309Z,3.10
2022-08-10T20:03:17.290Z,3.50
2022-08-10T20:06:18.099Z,3.10
2022-08-10T20:08:59.640Z,3.20
2022-08-10T20:11:44.499Z,3.00
2022-08-10T20:14:36.969Z,3.20
2022-08-10T20:17:05.973Z,3.60
2022-08-10T20:19:53.006Z,3.00
2022-08-10T20:22:29.614Z,3.30
2022-08-10T20:25:02.950Z,3.00
2022-08-10T20:27:59.468Z,3.00
2022-08-10T20:30:33.711Z,3.10
2022-08-10T20:33:11.780Z,3.20
2022-08-10T20:35:48.761Z,3.00
2022-08-10T20:38:39.372Z,3.50
2022-08-10T20:43:55.580Z,3.70
2022-08-10T20:46:30.823Z,3.50
2022-08-10T20:49:32.076Z,3.50
2022-08-10T20:52:03.021Z,3.20
2022-08-10T20:54:45.017Z,3.30
2022-08-10T20:57:55.847Z,3.10
2022-08-10T21:00:23.035Z,3.50
2022-08-10T21:02:50.516Z,3.60
2022-08-10T21:05:36.095Z,3.70
2022-08-10T21:08:41.956Z,3.40
2022-08-10T21:11:16.312Z,4.10
2022-08-10T21:14:21.326Z,3.70
2022-08-10T21:17:10.386Z,3.60
2022-08-10T21:19:53.705Z,3.50
2022-08-10T21:22:29.534Z,3.50
2022-08-10T21:25:01.212Z,3.80
2022-08-10T21:27:59.626Z,3.70
2022-08-10T21:30:53.223Z,3.60
2022-08-10T21:33:49.124Z,3.90
2022-08-10T21:36:23.347Z,4.00
2022-08-10T21:39:09.916Z,3.80
2022-08-10T21:41:59.131Z,4.10
2022-08-10T21:45:10.930Z,4.10
2022-08-10T21:48:06.685Z,3.70
2022-08-10T21:51:05.956Z,4.00
2022-08-10T21:53:57.600Z,4.40
2022-08-10T21:56:46.977Z,3.80
2022-08-10T21:59:44.952Z,5.00
2022-08-10T22:02:34.936Z,4.60
2022-08-10T22:05:21.033Z,4.50
2022-08-10T22:08:12.083Z,5.00
2022-08-10T22:11:04.334Z,4.60
2022-08-10T22:13:51.818Z,5.10
2022-08-10T22:16:44.570Z,5.10
2022-08-10T22:19:30.056Z,5.20
2022-08-10T22:22:31.208Z,5.80
2022-08-10T22:25:52.013Z,5.60
2022-08-10T22:28:38.013Z,5.00
2022-08-10T22:31:48.174Z,5.60
2022-08-10T22:34:41.879Z,5.50
2022-08-10T22:37:51.501Z,5.50
2022-08-10T22:40:41.767Z,5.70
2022-08-10T22:43:47.042Z,5.60
2022-08-10T22:46:44.814Z,6.00
2022-08-10T22:49:11.767Z,5.60
2022-08-10T22:52:03.398Z,5.80
2022-08-10T22:54:57.018Z,6.20
2022-08-10T22:57:42.664Z,5.80
2022-08-10T23:00:15.185Z,6.30
2022-08-10T23:02:50.355Z,6.20
2022-08-10T23:05:17.640Z,6.50
2022-08-10T23:07:47.655Z,6.60
2022-08-10T23:10:15.398Z,6.70
2022-08-10T23:12:58.348Z,7.70
2022-08-10T23:15:46.806Z,7.00
2022-08-10T23:18:34.947Z,6.40
2022-08-10T23:21:02.114Z,6.80
2022-08-10T23:23:29.973Z,6.60
2022-08-10T23:25:58.491Z,7.20
2022-08-10T23:28:39.168Z,6.50
2022-08-10T23:31:13.457Z,7.00
2022-08-10T23:33:40.709Z,7.60
2022-08-10T23:36:32.214Z,7.90
2022-08-10T23:39:25.479Z,6.60
2022-08-10T23:41:42.201Z,6.80
2022-08-10T23:44:13.658Z,7.30
2022-08-10T23:46:47.975Z,7.60
2022-08-10T23:49:15.843Z,7.20
2022-08-10T23:51:54.966Z,8.00
2022-08-10T23:54:24.084Z,6.90
2022-08-10T23:56:52.664Z,7.70
2022-08-10T23:59:23.390Z,8.30
